Time;durP1;ratioP1;P1;durP2;ratioP2;P2;SDS_P1;SDS_P2;PMS_P1;PMS_P2;Temp;Humidity;BMP_temperature;BMP_pressure;BME280_temperature;BME280_humidity;BME280_pressure;Samples;Min_cycle;Max_cycle;Signal;HPM_P1;HPM_P2
2022/03/02 00:01:16;;;;;;;28.88;16.75;;;;;;;6.27;39.37;95573.06;4951918;29;20184;-71
2022/03/02 00:03:43;;;;;;;24.67;15.13;;;;;;;6.18;39.43;95571.75;4951618;29;20203;-69
2022/03/02 00:06:11;;;;;;;22.92;15.32;;;;;;;6.31;39.43;95565.63;4951547;29;20679;-69
2022/03/02 00:08:37;;;;;;;24.45;16.08;;;;;;;6.69;38.94;95556.69;4951334;29;20207;-68
2022/03/02 00:11:05;;;;;;;29.83;16.70;;;;;;;7.03;38.32;95553.53;4952226;29;20199;-70
2022/03/02 00:13:33;;;;;;;24.45;15.98;;;;;;;7.14;38.48;95550.22;4951778;29;20222;-70
2022/03/02 00:16:00;;;;;;;28.15;17.05;;;;;;;6.94;38.81;95554.03;4951387;28;20247;-69
2022/03/02 00:18:27;;;;;;;28.00;17.23;;;;;;;6.19;39.85;95555.13;4950523;29;20645;-70
2022/03/02 00:20:54;;;;;;;26.42;16.65;;;;;;;6.48;39.45;95554.47;4949865;29;20203;-69
2022/03/02 00:23:22;;;;;;;27.77;18.23;;;;;;;6.40;39.69;95552.16;4933851;29;20211;-71
2022/03/02 00:25:49;;;;;;;26.65;17.17;;;;;;;6.39;39.71;95553.16;4950424;29;20227;-69
2022/03/02 00:28:18;;;;;;;23.70;15.68;;;;;;;6.62;39.02;95540.34;4951460;29;20585;-71
2022/03/02 00:30:45;;;;;;;23.10;15.35;;;;;;;6.39;38.93;95532.31;4951595;29;20200;-69
2022/03/02 00:33:12;;;;;;;21.10;13.23;;;;;;;5.77;39.95;95550.56;4950960;29;20195;-70
2022/03/02 00:35:39;;;;;;;23.20;15.65;;;;;;;5.95;39.45;95532.47;4950484;29;20208;-69
2022/03/02 00:38:09;;;;;;;20.35;13.23;;;;;;;6.53;38.54;95536.41;4951030;29;20239;-71
2022/03/02 00:40:40;;;;;;;21.05;13.18;;;;;;;6.53;38.09;95523.38;4950598;29;20228;-70
2022/03/02 00:43:08;;;;;;;19.88;12.50;;;;;;;6.59;38.09;95529.53;4951427;29;20574;-71
2022/03/02 00:45:37;;;;;;;19.38;13.15;;;;;;;6.44;38.81;95527.25;4950811;29;20555;-71
2022/03/02 00:48:05;;;;;;;18.08;12.07;;;;;;;6.59;38.54;95524.31;4951291;29;20232;-70
2022/03/02 00:50:34;;;;;;;17.42;12.30;;;;;;;6.62;38.50;95524.72;4951021;29;20203;-70
2022/03/02 00:53:05;;;;;;;19.35;12.48;;;;;;;7.05;37.41;95520.25;4951419;29;20284;-69
2022/03/02 00:55:33;;;;;;;18.17;12.60;;;;;;;6.97;37.98;95507.50;4950524;29;20203;-70
2022/03/02 00:58:02;;;;;;;21.98;13.35;;;;;;;6.76;37.76;95513.16;4951356;29;20290;-69
2022/03/02 01:00:29;;;;;;;23.63;12.65;;;;;;;6.37;38.40;95484.13;4950799;29;20287;-69
2022/03/02 01:02:56;;;;;;;20.77;13.45;;;;;;;6.46;38.61;95499.22;4950752;29;20622;-68
2022/03/02 01:05:23;;;;;;;19.05;12.68;;;;;;;6.30;38.81;95499.78;4951219;29;20197;-69
2022/03/02 01:07:51;;;;;;;23.33;14.77;;;;;;;6.67;38.52;95480.59;4951443;29;20204;-70
2022/03/02 01:10:19;;;;;;;22.35;13.90;;;;;;;6.63;38.46;95491.66;4950789;29;20668;-69
2022/03/02 01:12:46;;;;;;;22.77;13.15;;;;;;;6.23;38.88;95493.84;4951456;29;20247;-70
2022/03/02 01:15:13;;;;;;;26.73;13.48;;;;;;;6.12;39.11;95492.72;4950099;29;20669;-69
2022/03/02 01:17:41;;;;;;;22.67;14.40;;;;;;;6.15;38.95;95486.28;4951379;29;20196;-69
2022/03/02 01:20:10;;;;;;;21.85;14.57;;;;;;;5.95;39.60;95485.66;4950759;29;20310;-70
2022/03/02 01:22:37;;;;;;;19.63;13.02;;;;;;;5.84;39.81;95478.53;4951052;29;20640;-70
2022/03/02 01:25:06;;;;;;;20.83;13.23;;;;;;;5.89;39.48;95478.72;4950231;29;20191;-71
2022/03/02 01:27:33;;;;;;;21.88;13.38;;;;;;;5.25;40.34;95493.69;4951136;29;20207;-70
2022/03/02 01:30:00;;;;;;;19.73;12.80;;;;;;;5.43;40.13;95480.78;4954449;29;20247;-70
2022/03/02 01:32:27;;;;;;;22.50;12.75;;;;;;;5.98;38.69;95480.84;4954963;29;20191;-70
2022/03/02 01:34:54;;;;;;;16.98;11.65;;;;;;;5.71;39.33;95482.00;4954519;29;20196;-69
2022/03/02 01:37:21;;;;;;;19.77;12.23;;;;;;;5.65;39.57;95476.84;4954841;29;20192;-69
2022/03/02 01:39:48;;;;;;;21.42;12.27;;;;;;;5.72;39.19;95480.19;4954287;29;20242;-69
2022/03/02 01:42:15;;;;;;;19.35;12.23;;;;;;;5.46;39.35;95470.78;4954561;29;20214;-71
2022/03/02 01:44:42;;;;;;;17.60;10.80;;;;;;;4.97;40.27;95484.41;4953995;29;20791;-69
2022/03/02 01:47:09;;;;;;;18.25;12.10;;;;;;;4.89;41.09;95471.66;4954652;29;20291;-69
2022/03/02 01:49:37;;;;;;;23.50;14.18;;;;;;;4.94;40.98;95476.25;4953912;29;20226;-70
2022/03/02 01:52:04;;;;;;;22.88;13.80;;;;;;;5.66;39.65;95463.63;4954470;29;20246;-70
2022/03/02 01:54:31;;;;;;;23.48;13.63;;;;;;;5.33;40.51;95470.06;4953949;29;20211;-69
2022/03/02 01:56:58;;;;;;;20.92;14.00;;;;;;;5.39;40.56;95475.22;4954514;29;20656;-69
2022/03/02 01:59:25;;;;;;;22.15;13.23;;;;;;;5.44;40.63;95469.41;4953609;29;20694;-73
2022/03/02 02:01:52;;;;;;;20.85;13.35;;;;;;;5.39;39.97;95459.63;4953823;29;20642;-69
2022/03/02 02:04:20;;;;;;;18.98;12.45;;;;;;;4.73;40.93;95458.34;4954185;29;20200;-70
2022/03/02 02:06:47;;;;;;;25.60;14.30;;;;;;;4.82;40.81;95455.31;4954537;29;20196;-69
2022/03/02 02:09:14;;;;;;;19.95;13.07;;;;;;;4.93;40.59;95446.88;4953845;29;20278;-69
2022/03/02 02:11:41;;;;;;;19.67;12.55;;;;;;;5.15;40.27;95448.16;4954591;29;20232;-68
2022/03/02 02:14:08;;;;;;;20.98;12.75;;;;;;;5.42;39.85;95458.41;4953700;29;20295;-70
2022/03/02 02:16:35;;;;;;;20.10;11.88;;;;;;;5.13;40.03;95450.19;4954172;29;20180;-70
2022/03/02 02:19:02;;;;;;;16.17;11.55;;;;;;;5.65;39.03;95445.66;4953471;29;20203;-70
2022/03/02 02:21:29;;;;;;;18.27;11.75;;;;;;;5.56;38.84;95437.31;4953832;29;20208;-69
2022/03/02 02:23:56;;;;;;;16.15;11.30;;;;;;;5.74;38.76;95426.19;4953329;29;20199;-69
2022/03/02 02:26:25;;;;;;;15.93;10.98;;;;;;;5.59;38.93;95441.28;4953465;29;20204;-69
2022/03/02 02:28:52;;;;;;;17.52;11.35;;;;;;;5.57;39.18;95440.69;4952778;29;20207;-71
2022/03/02 02:31:20;;;;;;;15.32;10.18;;;;;;;5.55;38.65;95414.13;4953841;29;20200;-70
2022/03/02 02:33:47;;;;;;;15.98;10.65;;;;;;;5.44;38.89;95430.41;4953293;29;20204;-69
2022/03/02 02:36:15;;;;;;;15.13;10.98;;;;;;;4.95;39.45;95437.09;4936149;29;20570;-69
2022/03/02 02:38:42;;;;;;;14.93;10.20;;;;;;;4.76;39.45;95437.94;4953372;29;20674;-70
2022/03/02 02:41:09;;;;;;;14.07;10.05;;;;;;;4.81;39.41;95445.94;4952922;28;20227;-70
2022/03/02 02:43:37;;;;;;;14.38;9.80;;;;;;;5.16;39.52;95454.16;4952945;29;20204;-70
2022/03/02 02:46:04;;;;;;;15.05;10.15;;;;;;;5.15;39.07;95448.16;4953570;29;20594;-70
2022/03/02 02:48:32;;;;;;;113.70;75.88;;;;;;;5.55;38.60;95447.91;4953093;29;20283;-71
2022/03/02 02:50:59;;;;;;;24.63;16.27;;;;;;;5.76;38.10;95445.78;4953311;29;20306;-70
2022/03/02 02:53:26;;;;;;;16.20;11.20;;;;;;;5.97;38.08;95431.63;4953437;29;20226;-71
2022/03/02 02:55:54;;;;;;;16.80;11.20;;;;;;;5.84;37.96;95435.13;4952620;29;20210;-70
2022/03/02 02:58:20;;;;;;;14.10;10.40;;;;;;;5.49;38.39;95446.19;4953421;29;20262;-70
2022/03/02 03:00:49;;;;;;;15.10;10.48;;;;;;;5.46;38.50;95438.78;4952778;29;20235;-71
2022/03/02 03:03:18;;;;;;;16.02;10.20;;;;;;;5.12;38.95;95438.22;4953150;29;20310;-69
2022/03/02 03:05:46;;;;;;;13.40;9.48;;;;;;;5.37;38.90;95435.66;4952768;29;20309;-70
2022/03/02 03:08:13;;;;;;;14.02;10.35;;;;;;;5.30;38.73;95439.28;4952977;29;20203;-69
2022/03/02 03:10:42;;;;;;;16.35;10.70;;;;;;;4.95;39.07;95442.28;4952128;29;20640;-70
2022/03/02 03:13:09;;;;;;;14.85;10.80;;;;;;;4.77;39.46;95439.56;4953134;29;20622;-69
2022/03/02 03:15:37;;;;;;;13.93;9.88;;;;;;;4.55;39.90;95440.84;4952268;29;20740;-68
2022/03/02 03:18:06;;;;;;;15.38;10.35;;;;;;;4.82;39.40;95441.53;4953079;29;20793;-69
2022/03/02 03:20:34;;;;;;;14.52;10.73;;;;;;;4.65;39.81;95443.78;4952238;29;20224;-68
2022/03/02 03:23:01;;;;;;;15.05;9.88;;;;;;;4.52;40.13;95443.84;4953289;29;20188;-68
2022/03/02 03:25:29;;;;;;;14.20;9.93;;;;;;;4.40;40.01;95440.28;4952726;29;20652;-68
2022/03/02 03:27:56;;;;;;;13.18;9.88;;;;;;;4.92;39.08;95421.94;4952672;29;20204;-68
2022/03/02 03:30:25;;;;;;;14.95;10.60;;;;;;;4.98;39.08;95447.03;4953008;29;20199;-69
2022/03/02 03:32:52;;;;;;;16.70;10.48;;;;;;;4.98;39.16;95415.13;4953599;29;20204;-69
2022/03/02 03:35:21;;;;;;;21.05;12.63;;;;;;;5.13;39.30;95444.97;4952565;29;20206;-70
2022/03/02 03:37:48;;;;;;;14.75;9.38;;;;;;;4.64;40.12;95438.81;4952238;29;20709;-70
2022/03/02 03:40:17;;;;;;;14.35;9.27;;;;;;;4.46;40.71;95436.88;4951758;29;20601;-71
2022/03/02 03:42:46;;;;;;;13.05;8.75;;;;;;;4.77;40.21;95447.34;4952640;29;20556;-70
2022/03/02 03:45:13;;;;;;;13.70;9.25;;;;;;;4.60;40.82;95438.41;4952599;29;20207;-68
2022/03/02 03:47:40;;;;;;;14.02;9.23;;;;;;;4.45;40.94;95440.50;4952650;29;20582;-68
2022/03/02 03:50:09;;;;;;;13.48;9.40;;;;;;;4.08;41.89;95443.75;4952298;29;20568;-69
2022/03/02 03:52:36;;;;;;;12.95;9.73;;;;;;;4.22;41.61;95441.91;4951988;28;20200;-70
2022/03/02 03:55:05;;;;;;;15.82;9.90;;;;;;;4.53;41.26;95442.84;4952335;29;20200;-70
2022/03/02 03:57:32;;;;;;;14.40;9.50;;;;;;;4.30;41.88;95444.31;4953041;29;20200;-69
2022/03/02 03:59:59;;;;;;;11.98;9.07;;;;;;;4.51;41.73;95431.88;4951993;29;20262;-69
2022/03/02 04:02:25;;;;;;;14.18;9.68;;;;;;;4.45;41.33;95419.72;4952190;29;20195;-70
2022/03/02 04:04:52;;;;;;;14.65;9.63;;;;;;;4.90;41.22;95434.31;4951717;29;20214;-68
2022/03/02 04:07:19;;;;;;;15.30;9.57;;;;;;;4.62;41.54;95436.41;4951976;29;20184;-68
2022/03/02 04:09:46;;;;;;;13.40;9.45;;;;;;;4.37;42.74;95432.91;4951751;29;20191;-70
2022/03/02 04:12:13;;;;;;;15.20;10.15;;;;;;;4.44;42.37;95438.88;4951762;29;20215;-69
2022/03/02 04:14:41;;;;;;;15.77;9.65;;;;;;;4.27;42.67;95436.94;4951465;29;20298;-70
2022/03/02 04:17:08;;;;;;;14.52;9.85;;;;;;;4.26;42.97;95436.13;4951968;29;20255;-70
2022/03/02 04:19:35;;;;;;;15.82;9.85;;;;;;;4.26;42.86;95435.31;4951207;29;20192;-69
2022/03/02 04:22:02;;;;;;;15.52;9.52;;;;;;;3.91;43.53;95427.00;4952009;29;20192;-68
2022/03/02 04:24:29;;;;;;;14.70;9.20;;;;;;;3.67;43.63;95406.88;4950935;29;20207;-69
2022/03/02 04:26:56;;;;;;;13.40;9.70;;;;;;;3.53;44.83;95428.59;4951238;29;20195;-69
2022/03/02 04:29:23;;;;;;;17.08;10.13;;;;;;;3.28;45.63;95431.00;4951374;29;20291;-70
2022/03/02 04:31:50;;;;;;;14.45;9.27;;;;;;;3.67;44.98;95432.78;4951323;29;20203;-69
2022/03/02 04:34:17;;;;;;;14.88;9.18;;;;;;;3.37;45.45;95418.63;4951372;29;21032;-69
2022/03/02 04:36:44;;;;;;;12.82;8.98;;;;;;;3.17;45.93;95428.19;4951272;29;20216;-70
2022/03/02 04:39:10;;;;;;;13.75;9.07;;;;;;;3.48;45.47;95431.00;4951127;29;20644;-69
2022/03/02 04:41:37;;;;;;;15.48;9.73;;;;;;;3.29;46.11;95426.59;4934384;29;20228;-69
2022/03/02 04:44:05;;;;;;;14.75;8.98;;;;;;;3.22;46.05;95426.59;4951487;29;20207;-71
2022/03/02 04:46:32;;;;;;;15.05;9.50;;;;;;;2.83;46.78;95416.94;4951764;29;20644;-71
2022/03/02 04:49:10;;;;;;;15.85;9.57;;;;;;;3.22;46.54;95421.41;4950933;29;20186;-67
2022/03/02 04:51:38;;;;;;;14.95;9.50;;;;;;;3.21;46.51;95408.66;4951427;29;20234;-68
2022/03/02 04:54:06;;;;;;;13.82;9.40;;;;;;;3.09;47.33;95422.19;4951413;29;20226;-67
2022/03/02 04:56:34;;;;;;;15.38;9.68;;;;;;;3.32;46.86;95426.22;4951942;29;20235;-68
2022/03/02 04:59:01;;;;;;;16.50;11.05;;;;;;;3.08;47.90;95420.56;4951153;29;20191;-68
2022/03/02 05:01:28;;;;;;;14.88;10.20;;;;;;;3.65;46.65;95411.50;4950233;28;20223;-68
2022/03/02 05:03:56;;;;;;;17.90;11.18;;;;;;;4.07;45.34;95414.41;4951770;28;20322;-69
2022/03/02 05:06:23;;;;;;;17.42;10.48;;;;;;;4.47;44.68;95412.50;4954552;28;20754;-69
2022/03/02 05:08:49;;;;;;;50.55;23.13;;;;;;;4.89;44.22;95422.31;4953898;28;20266;-69
2022/03/02 05:11:16;;;;;;;23.92;13.70;;;;;;;4.84;44.01;95416.97;4955435;29;20795;-69
2022/03/02 05:13:43;;;;;;;20.02;12.35;;;;;;;4.87;43.97;95400.97;4955023;29;20710;-69
2022/03/02 05:16:10;;;;;;;20.15;11.23;;;;;;;5.18;44.74;95407.19;4954744;29;20266;-70
2022/03/02 05:18:41;;;;;;;17.73;11.25;;;;;;;4.94;44.05;95404.34;4955039;29;20274;-69
2022/03/02 05:21:08;;;;;;;21.48;11.63;;;;;;;4.92;44.21;95400.34;4954756;29;20223;-69
2022/03/02 05:23:35;;;;;;;18.20;11.77;;;;;;;5.00;44.14;95408.69;4954547;28;20191;-69
2022/03/02 05:26:02;;;;;;;23.63;11.18;;;;;;;4.97;44.16;95408.31;4955757;29;20729;-69
2022/03/02 05:28:29;;;;;;;15.77;10.98;;;;;;;4.96;44.68;95406.72;4954682;29;20199;-70
2022/03/02 05:30:56;;;;;;;18.38;10.98;;;;;;;5.02;44.13;95393.69;4954604;29;20188;-70
2022/03/02 05:33:23;;;;;;;15.80;11.15;;;;;;;5.14;44.11;95414.63;4954899;29;20739;-70
2022/03/02 05:35:50;;;;;;;17.08;10.55;;;;;;;5.09;44.52;95415.22;4954797;29;20258;-69
2022/03/02 05:38:16;;;;;;;16.73;10.98;;;;;;;4.77;44.96;95407.59;4954953;29;20215;-68
2022/03/02 05:40:43;;;;;;;16.08;10.88;;;;;;;5.20;44.21;95413.75;4954433;29;20299;-70
2022/03/02 05:43:10;;;;;;;16.85;11.55;;;;;;;4.60;45.52;95404.69;4954484;29;20259;-72
2022/03/02 05:45:37;;;;;;;18.08;10.95;;;;;;;4.93;45.09;95417.50;4954298;29;20334;-71
2022/03/02 05:48:04;;;;;;;16.70;10.77;;;;;;;5.08;44.86;95400.66;4954798;29;20204;-69
2022/03/02 05:50:31;;;;;;;18.08;11.13;;;;;;;5.21;44.84;95409.38;4954132;29;20204;-68
2022/03/02 05:52:58;;;;;;;16.25;10.55;;;;;;;4.90;45.34;95413.53;4954561;29;20208;-71
2022/03/02 05:55:25;;;;;;;47.50;27.80;;;;;;;5.31;45.78;95394.13;4954476;29;20262;-72
2022/03/02 05:57:52;;;;;;;21.52;14.70;;;;;;;4.74;46.52;95413.22;4953143;29;20192;-74
2022/03/02 06:00:19;;;;;;;16.42;10.82;;;;;;;4.41;48.22;95413.34;4954261;29;20239;-74
2022/03/02 06:02:46;;;;;;;18.60;12.25;;;;;;;4.51;47.20;95420.69;4954730;29;20662;-70
2022/03/02 06:05:14;;;;;;;26.67;12.23;;;;;;;4.00;49.08;95425.78;4954202;29;20290;-70
2022/03/02 06:07:41;;;;;;;28.83;17.73;;;;;;;3.72;49.68;95417.47;4954179;29;20263;-73
2022/03/02 06:10:08;;;;;;;78.82;38.92;;;;;;;4.86;48.03;95417.56;4937210;29;20200;-74
2022/03/02 06:12:35;;;;;;;18.48;11.65;;;;;;;5.39;46.80;95423.25;4953934;29;20199;-70
2022/03/02 06:15:04;;;;;;;18.30;11.68;;;;;;;4.15;47.97;95413.41;4952869;28;20224;-73
2022/03/02 06:17:32;;;;;;;18.63;12.23;;;;;;;5.14;46.26;95392.03;4953781;29;20235;-71
2022/03/02 06:19:59;;;;;;;17.55;12.07;;;;;;;5.13;46.14;95434.59;4953324;29;20649;-70
2022/03/02 06:22:26;;;;;;;19.13;11.57;;;;;;;5.11;45.60;95426.22;4954176;29;20196;-71
2022/03/02 06:24:53;;;;;;;22.02;12.73;;;;;;;4.96;46.76;95422.31;4954526;29;20644;-71
2022/03/02 06:27:21;;;;;;;21.27;12.52;;;;;;;5.18;46.55;95420.19;4954047;28;20706;-70
2022/03/02 06:29:49;;;;;;;21.23;13.10;;;;;;;4.76;47.58;95417.19;4953549;29;20202;-71
2022/03/02 06:32:16;;;;;;;17.10;9.63;;;;;;;4.00;49.23;95420.59;4951544;29;20223;-73
2022/03/02 06:34:43;;;;;;;19.88;11.88;;;;;;;3.76;49.75;95410.88;4950983;29;20259;-68
2022/03/02 06:37:10;;;;;;;19.50;12.55;;;;;;;4.36;48.25;95405.34;4951479;29;20203;-71
2022/03/02 06:39:38;;;;;;;17.73;12.60;;;;;;;3.98;49.17;95407.84;4952040;29;20262;-72
2022/03/02 06:42:32;;;;;;;21.52;13.05;;;;;;;4.53;47.86;95398.72;4954182;29;20239;-71
2022/03/02 06:44:59;;;;;;;42.30;21.90;;;;;;;4.95;47.40;95408.53;4953643;29;20204;-71
2022/03/02 06:47:31;;;;;;;23.40;14.63;;;;;;;4.50;48.40;95406.94;4953665;29;20275;-71
2022/03/02 06:50:06;;;;;;;20.60;13.90;;;;;;;4.79;47.73;95421.97;4953143;29;20204;-71
2022/03/02 06:52:36;;;;;;;24.13;14.07;;;;;;;5.23;46.54;95404.75;4953784;29;20659;-70
2022/03/02 06:55:09;;;;;;;22.48;13.98;;;;;;;5.43;46.09;95410.63;4953542;29;20254;-73
2022/03/02 06:57:37;;;;;;;22.40;14.77;;;;;;;5.12;47.03;95412.22;4953843;29;20227;-71
2022/03/02 07:00:16;;;;;;;25.92;15.18;;;;;;;4.92;46.73;95395.16;4935952;29;20266;-74
2022/03/02 07:02:52;;;;;;;26.52;15.35;;;;;;;5.42;46.04;95386.44;4954041;29;20227;-73
2022/03/02 07:05:20;;;;;;;21.58;13.82;;;;;;;4.61;47.65;95408.09;4953103;29;20195;-72
2022/03/02 07:07:48;;;;;;;19.98;10.57;;;;;;;3.86;49.16;95409.47;4954269;29;20226;-74
2022/03/02 07:10:15;;;;;;;23.10;14.07;;;;;;;4.74;47.55;95401.06;4953825;29;20224;-70
2022/03/02 07:12:43;;;;;;;23.10;14.88;;;;;;;5.27;47.03;95403.34;4954217;29;20659;-72
2022/03/02 07:15:11;;;;;;;28.95;14.43;;;;;;;5.60;46.05;95394.28;4953126;29;20661;-71
2022/03/02 07:17:39;;;;;;;20.60;13.35;;;;;;;5.47;46.50;95393.59;4936212;29;20223;-69
2022/03/02 07:20:09;;;;;;;27.15;14.10;;;;;;;5.38;46.19;95394.88;4936026;29;20196;-75
2022/03/02 07:22:52;;;;;;;22.05;14.40;;;;;;;5.40;45.94;95382.47;4936224;29;20284;-71
2022/03/02 07:25:21;;;;;;;23.65;14.88;;;;;;;5.66;45.74;95374.44;4952606;29;20239;-72
2022/03/02 07:27:51;;;;;;;24.08;14.55;;;;;;;5.62;45.58;95387.06;4936066;29;20747;-72
2022/03/02 07:30:18;;;;;;;22.63;14.73;;;;;;;6.00;45.02;95379.19;4953155;29;20192;-69
2022/03/02 07:32:46;;;;;;;24.23;15.10;;;;;;;5.66;45.85;95387.44;4953175;29;20203;-73
2022/03/02 07:35:15;;;;;;;24.05;15.30;;;;;;;5.96;45.15;95378.00;4952729;29;20196;-72
2022/03/02 07:37:46;;;;;;;34.08;24.73;;;;;;;6.03;44.59;95368.34;4953718;29;20207;-73
2022/03/02 07:40:14;;;;;;;26.35;16.27;;;;;;;5.97;44.78;95369.19;4953541;29;20194;-73
2022/03/02 07:42:42;;;;;;;25.80;16.08;;;;;;;6.12;44.73;95380.06;4953089;29;20616;-72
2022/03/02 07:45:09;;;;;;;24.27;15.38;;;;;;;6.08;44.45;95371.09;4952417;29;20667;-71
2022/03/02 07:47:36;;;;;;;26.25;15.50;;;;;;;5.49;45.55;95363.00;4952559;29;20263;-72
2022/03/02 07:50:04;;;;;;;26.25;15.60;;;;;;;5.56;45.67;95350.75;4952281;29;20203;-72
2022/03/02 07:52:35;;;;;;;28.90;16.30;;;;;;;6.04;44.56;95355.13;4952465;29;20191;-77
2022/03/02 07:55:09;;;;;;;27.90;16.13;;;;;;;6.21;44.44;95365.75;4952524;29;20198;-73
2022/03/02 07:57:41;;;;;;;25.58;16.60;;;;;;;5.63;44.89;95373.09;4953495;29;20222;-72
2022/03/02 08:00:11;;;;;;;25.67;15.55;;;;;;;5.71;44.96;95365.00;4960959;29;20214;-72
2022/03/02 08:02:42;;;;;;;25.15;15.95;;;;;;;5.97;45.22;95369.19;4960538;29;20263;-73
2022/03/02 08:05:11;;;;;;;24.67;16.58;;;;;;;6.66;44.25;95359.19;4952502;29;20272;-74
2022/03/02 08:07:38;;;;;;;23.45;16.35;;;;;;;6.12;44.66;95356.63;4953971;29;20627;-72
2022/03/02 08:10:06;;;;;;;23.98;15.55;;;;;;;5.99;44.73;95352.38;4953591;29;20208;-71
2022/03/02 08:12:34;;;;;;;29.15;17.17;;;;;;;6.88;43.56;95356.91;4953266;29;20275;-72
2022/03/02 08:15:03;;;;;;;26.48;17.20;;;;;;;6.48;44.36;95361.06;4952634;29;20669;-73
2022/03/02 08:17:30;;;;;;;30.92;17.80;;;;;;;6.40;43.97;95358.75;4952622;29;20203;-71
2022/03/02 08:19:58;;;;;;;30.38;18.05;;;;;;;6.00;45.15;95347.97;4952479;29;20199;-73
2022/03/02 08:22:29;;;;;;;26.50;17.42;;;;;;;6.23;44.37;95358.53;4952522;29;20219;-73
2022/03/02 08:24:58;;;;;;;27.85;17.35;;;;;;;6.12;44.87;95351.44;4952219;29;20208;-73
2022/03/02 08:27:29;;;;;;;28.35;18.15;;;;;;;6.46;44.28;95357.88;4952569;29;20214;-73
2022/03/02 08:29:57;;;;;;;26.65;17.75;;;;;;;6.90;43.42;95354.88;4953307;29;20192;-72
2022/03/02 08:32:25;;;;;;;33.05;17.48;;;;;;;7.28;42.73;95337.09;4952694;29;20313;-72
2022/03/02 08:34:53;;;;;;;26.83;18.02;;;;;;;6.93;42.82;95334.41;4952440;29;20180;-71
2022/03/02 08:37:20;;;;;;;32.70;18.38;;;;;;;6.53;43.92;95342.97;4953681;28;20208;-70
2022/03/02 08:39:48;;;;;;;27.92;17.48;;;;;;;6.50;44.02;95352.00;4951741;29;20204;-71
2022/03/02 08:42:14;;;;;;;31.98;18.48;;;;;;;6.22;44.55;95330.91;4951507;29;20228;-74
2022/03/02 08:44:45;;;;;;;29.10;17.52;;;;;;;7.18;43.02;95327.25;4951696;29;20325;-72
2022/03/02 08:47:14;;;;;;;31.30;18.63;;;;;;;7.12;43.26;95329.91;4951515;29;20668;-75
2022/03/02 08:49:41;;;;;;;29.92;17.85;;;;;;;7.02;42.51;95327.88;4951573;29;20203;-75
2022/03/02 08:52:09;;;;;;;32.92;18.42;;;;;;;6.72;43.31;95334.91;4951789;29;20196;-72
2022/03/02 08:54:45;;;;;;;31.80;18.75;;;;;;;7.10;42.49;95322.34;4951659;29;20207;-76
2022/03/02 08:57:12;;;;;;;29.67;17.35;;;;;;;7.04;42.28;95315.41;4951854;29;20553;-75
2022/03/02 08:59:41;;;;;;;29.83;18.27;;;;;;;7.18;42.98;95322.03;4952288;29;20195;-71
2022/03/02 09:02:08;;;;;;;31.38;19.63;;;;;;;7.38;42.34;95320.91;4951279;29;20215;-72
2022/03/02 09:04:37;;;;;;;28.23;18.95;;;;;;;7.43;41.78;95318.41;4951400;29;20211;-78
2022/03/02 09:07:05;;;;;;;32.58;18.85;;;;;;;6.56;42.60;95324.28;4953367;29;20204;-70
2022/03/02 09:09:32;;;;;;;31.83;19.50;;;;;;;7.08;42.98;95306.13;4954007;29;20207;-75
2022/03/02 09:11:59;;;;;;;39.03;21.17;;;;;;;7.32;42.96;95312.16;4951926;29;20214;-75
2022/03/02 09:14:26;;;;;;;31.67;19.33;;;;;;;7.67;42.10;95306.97;4930845;29;20324;-71
2022/03/02 09:16:53;;;;;;;34.60;19.08;;;;;;;7.72;42.23;95312.34;4932646;29;20199;-72
2022/03/02 09:19:21;;;;;;;31.92;20.23;;;;;;;7.64;42.15;95300.41;4931922;29;20221;-68
2022/03/02 09:21:49;;;;;;;31.17;19.70;;;;;;;7.69;41.46;95291.91;4931978;29;20774;-75
2022/03/02 09:24:18;;;;;;;33.50;19.80;;;;;;;7.55;41.38;95286.13;4933449;29;20192;-72
2022/03/02 09:26:45;;;;;;;28.80;18.88;;;;;;;8.64;41.17;95286.06;4933050;29;20695;-70
2022/03/02 09:29:17;;;;;;;31.88;19.35;;;;;;;9.04;39.69;95271.09;4932367;29;20193;-72
2022/03/02 09:31:49;;;;;;;31.92;19.17;;;;;;;8.98;38.25;95279.88;4932968;29;20236;-70
2022/03/02 09:34:25;;;;;;;26.05;16.67;;;;;;;9.76;37.24;95258.84;4932444;29;20211;-74
2022/03/02 09:36:54;;;;;;;33.30;18.58;;;;;;;9.90;38.03;95269.75;4932974;29;20196;-69
2022/03/02 09:39:23;;;;;;;29.42;18.60;;;;;;;10.01;37.42;95274.09;4931802;29;20274;-69
2022/03/02 09:41:58;;;;;;;25.00;16.90;;;;;;;9.17;37.44;95259.53;4930621;29;20232;-68
2022/03/02 09:44:31;;;;;;;25.95;16.90;;;;;;;9.12;36.71;95273.31;4931951;29;20267;-72
2022/03/02 09:47:00;;;;;;;28.98;17.63;;;;;;;9.25;37.30;95266.19;4932376;29;20551;-71
2022/03/02 09:49:30;;;;;;;25.60;17.48;;;;;;;9.09;38.23;95265.16;4933307;29;20310;-75
2022/03/02 09:52:09;;;;;;;28.08;17.65;;;;;;;8.77;37.51;95258.84;4939103;29;20219;-70
2022/03/02 09:54:37;;;;;;;25.70;16.90;;;;;;;8.49;38.28;95267.50;4936312;29;20229;-72
2022/03/02 09:57:06;;;;;;;27.38;15.88;;;;;;;8.91;37.22;95260.94;4935286;29;20209;-71
2022/03/02 09:59:39;;;;;;;27.00;17.05;;;;;;;8.63;37.60;95266.19;4934928;29;20680;-74
2022/03/02 10:02:08;;;;;;;27.60;14.50;;;;;;;8.01;37.75;95264.44;4935381;29;20212;-71
2022/03/02 10:04:36;;;;;;;25.80;17.67;;;;;;;8.36;38.28;95251.31;4935529;29;20208;-68
2022/03/02 10:10:23;;;;;;;26.77;16.00;;;;;;;9.23;36.44;95242.09;4935056;29;20248;-73
2022/03/02 10:12:55;;;;;;;25.73;17.05;;;;;;;9.38;36.87;95240.50;4934563;29;20748;-70
2022/03/02 10:15:22;;;;;;;26.77;17.27;;;;;;;9.76;35.71;95232.66;4946647;29;20267;-72
2022/03/02 10:17:58;;;;;;;26.08;16.27;;;;;;;10.30;35.45;95228.41;4954511;29;20278;-71
2022/03/02 10:20:31;;;;;;;23.45;15.52;;;;;;;10.08;34.96;95210.06;4953732;29;20202;-71
2022/03/02 10:23:00;;;;;;;25.77;15.68;;;;;;;9.49;34.51;95225.78;4936742;29;20621;-74
2022/03/02 10:25:47;;;;;;;27.38;16.95;;;;;;;10.30;35.51;95225.78;4953730;29;20205;-71
2022/03/02 10:28:24;;;;;;;28.35;17.08;;;;;;;9.90;35.20;95218.22;4954058;29;20196;-71
2022/03/02 10:31:45;;;;;;;25.38;16.85;;;;;;;10.53;34.50;95217.63;4953736;29;20188;-73
2022/03/02 10:34:21;;;;;;;22.02;14.57;;;;;;;9.75;34.60;95211.97;4856964;29;20221;-70
2022/03/02 10:37:15;;;;;;;23.13;14.77;;;;;;;10.12;33.91;95205.16;4943198;29;20693;-74
2022/03/02 10:39:49;;;;;;;22.73;14.00;;;;;;;9.55;34.22;95206.47;4953094;29;20214;-71
2022/03/02 10:42:28;;;;;;;33.40;16.83;;;;;;;9.50;34.14;95190.72;4953819;29;20235;-73
2022/03/02 10:45:12;;;;;;;22.67;13.45;;;;;;;8.68;34.48;95200.97;4953388;29;20638;-71
2022/03/02 10:48:10;;;;;;;17.50;12.43;;;;;;;9.62;33.74;95189.56;4953543;29;20675;-75
2022/03/02 10:50:40;;;;;;;20.00;13.38;;;;;;;9.69;34.52;95184.97;4952978;29;20215;-70
2022/03/02 10:53:13;;;;;;;21.08;14.15;;;;;;;9.77;34.35;95178.50;4954165;29;20219;-76
2022/03/02 10:55:45;;;;;;;22.48;13.55;;;;;;;9.42;33.79;95178.03;4952967;29;20726;-72
2022/03/02 10:58:18;;;;;;;23.23;14.52;;;;;;;8.79;35.58;95178.41;4953730;29;20184;-74
2022/03/02 11:00:47;;;;;;;24.33;15.07;;;;;;;9.20;35.31;95165.72;4952932;28;20223;-71
2022/03/02 11:03:14;;;;;;;24.67;15.18;;;;;;;9.38;35.05;95163.88;4953449;29;20274;-70
2022/03/02 11:05:42;;;;;;;19.45;13.52;;;;;;;8.91;34.73;95166.84;4953182;29;20642;-71
2022/03/02 11:08:08;;;;;;;20.75;14.10;;;;;;;10.01;34.56;95154.47;4954058;29;20239;-72
2022/03/02 11:10:40;;;;;;;21.95;13.98;;;;;;;9.80;34.46;95149.22;4953875;29;20263;-72
2022/03/02 11:13:12;;;;;;;19.25;12.10;;;;;;;9.80;34.43;95130.91;4953658;29;20192;-73
2022/03/02 11:15:57;;;;;;;21.50;13.48;;;;;;;9.95;34.55;95115.38;4952471;29;20989;-73
2022/03/02 11:18:37;;;;;;;20.40;14.10;;;;;;;10.40;33.02;95128.97;4953587;29;20787;-70
2022/03/02 11:21:11;;;;;;;27.48;15.05;;;;;;;9.92;33.75;95126.34;4953395;29;20563;-71
2022/03/02 11:23:42;;;;;;;24.13;12.48;;;;;;;9.01;33.39;95125.19;4953069;29;20216;-70
2022/03/02 11:26:12;;;;;;;18.85;10.40;;;;;;;8.26;34.19;95131.81;4953117;29;20271;-69
2022/03/02 11:28:48;;;;;;;20.20;12.20;;;;;;;8.95;34.58;95115.72;4952574;29;20296;-71
2022/03/02 11:31:26;;;;;;;23.83;13.85;;;;;;;8.71;33.99;95119.50;4935727;29;20314;-68
2022/03/02 11:34:24;;;;;;;20.75;11.82;;;;;;;8.94;33.98;95108.88;4952754;29;20290;-72
2022/03/02 11:36:53;;;;;;;19.17;12.52;;;;;;;8.63;35.00;95078.09;4946945;29;20211;-68
2022/03/02 11:39:23;;;;;;;21.23;12.80;;;;;;;8.68;34.08;95101.72;4951782;29;20207;-69